Time;durP1;ratioP1;P1;durP2;ratioP2;P2;SDS_P1;SDS_P2;PMS_P1;PMS_P2;Temp;Humidity;BMP_temperature;BMP_pressure;BME280_temperature;BME280_humidity;BME280_pressure;Samples;Min_cycle;Max_cycle;Signal;HPM_P1;HPM_P2
2022/02/04 00:20:40;;;;;;;4.60;2.70;;;;;;;2.36;77.40;92629.66;2070226;69;20499;-71
2022/02/04 00:33:44;;;;;;;3.88;1.88;;;;;;;2.45;77.72;92615.94;2071894;69;20135;-70
2022/02/04 00:36:22;;;;;;;2.45;1.58;;;;;;;2.54;77.56;92611.81;2071766;69;20663;-70
2022/02/04 00:38:52;;;;;;;2.10;1.70;;;;;;;2.46;78.54;92608.31;2068425;69;20172;-69
2022/02/04 00:41:22;;;;;;;1.77;1.50;;;;;;;2.62;78.14;92603.47;2071871;69;20156;-70
2022/02/04 00:43:51;;;;;;;1.83;1.23;;;;;;;2.64;77.84;92598.06;2072047;69;20163;-69
2022/02/04 00:46:32;;;;;;;2.20;1.58;;;;;;;2.68;77.34;92599.16;2071715;69;20235;-70
2022/02/04 00:52:05;;;;;;;1.83;1.33;;;;;;;2.78;77.57;92600.03;2071619;69;20227;-70
2022/02/04 00:55:16;;;;;;;3.05;1.70;;;;;;;2.86;76.82;92596.50;2071359;69;20227;-70
2022/02/04 01:06:29;;;;;;;1.90;1.20;;;;;;;2.94;77.17;92603.50;2060740;69;20157;-69
2022/02/04 01:27:23;;;;;;;2.25;1.30;;;;;;;2.96;76.34;92592.56;2071777;69;20619;-75
2022/02/04 01:30:01;;;;;;;1.73;1.20;;;;;;;2.97;76.43;92588.47;2071603;69;20133;-73
2022/02/04 01:32:26;;;;;;;1.63;1.20;;;;;;;3.01;75.65;92577.69;2071858;69;20152;-72
2022/02/04 01:34:52;;;;;;;1.67;1.10;;;;;;;2.85;77.35;92572.78;2071587;69;20139;-76
2022/02/04 01:37:21;;;;;;;2.17;1.40;;;;;;;2.84;76.62;92577.63;2072175;69;20199;-70
2022/02/04 01:39:47;;;;;;;1.90;1.40;;;;;;;2.83;75.87;92595.56;2071799;69;20160;-70
2022/02/04 01:42:13;;;;;;;2.13;1.40;;;;;;;2.87;75.82;92586.84;2068449;69;20144;-71
2022/02/04 01:44:39;;;;;;;1.42;1.10;;;;;;;2.97;75.10;92587.72;2071950;69;20148;-70
2022/02/04 01:47:05;;;;;;;1.70;1.50;;;;;;;2.76;75.57;92582.47;2071781;69;20150;-71
2022/02/04 01:49:30;;;;;;;1.90;1.58;;;;;;;2.83;75.50;92583.72;2071477;69;20245;-74
2022/02/04 01:51:57;;;;;;;2.05;1.50;;;;;;;2.70;75.93;92574.34;2071537;69;20540;-71
2022/02/04 01:54:24;;;;;;;2.58;1.63;;;;;;;2.66;76.06;92573.25;2071767;69;20148;-74
2022/02/04 01:56:50;;;;;;;1.80;1.50;;;;;;;2.44;76.96;92566.47;2071631;69;20171;-72
2022/02/04 01:59:16;;;;;;;2.20;1.40;;;;;;;2.74;76.26;92577.44;2071732;69;20148;-73
2022/02/04 02:01:42;;;;;;;2.45;1.48;;;;;;;2.79;75.45;92572.97;2068275;69;20158;-74
2022/02/04 02:04:11;;;;;;;2.45;1.50;;;;;;;2.74;75.22;92571.16;2071600;69;20187;-72
2022/02/04 02:06:57;;;;;;;1.48;1.20;;;;;;;2.75;75.13;92575.44;2072410;69;20144;-71
2022/02/04 02:09:30;;;;;;;1.70;1.10;;;;;;;2.76;74.92;92582.47;2073974;69;20163;-72
2022/02/04 02:12:00;;;;;;;2.40;1.20;;;;;;;2.77;74.96;92576.34;2071733;69;20202;-72
2022/02/04 02:14:28;;;;;;;3.30;1.30;;;;;;;2.82;74.74;92582.97;2068337;69;20148;-71
2022/02/04 02:36:37;;;;;;;2.33;1.10;;;;;;;2.56;75.61;92561.97;2071539;69;20509;-70
2022/02/04 02:39:20;;;;;;;0.93;0.77;;;;;;;2.56;75.68;92561.97;2071470;69;20160;-71
2022/02/04 02:44:40;;;;;;;0.98;0.88;;;;;;;2.41;76.36;92568.34;2071589;69;20159;-76
2022/02/04 02:56:22;;;;;;;2.10;1.00;;;;;;;2.49;75.09;92562.75;2071555;69;20587;-77
2022/02/04 03:01:06;;;;;;;1.52;1.23;;;;;;;2.45;74.87;92565.19;2067173;69;20719;-69
2022/02/04 03:03:34;;;;;;;1.42;1.10;;;;;;;2.29;75.71;92564.47;2071639;69;20128;-75
2022/02/04 03:06:00;;;;;;;1.85;1.30;;;;;;;2.45;75.13;92560.34;2071438;69;20243;-72
2022/02/04 03:08:28;;;;;;;1.70;1.25;;;;;;;2.42;74.86;92572.59;2071459;69;20163;-72
2022/02/04 03:10:56;;;;;;;1.50;1.30;;;;;;;2.42;74.37;92561.47;2071626;69;20604;-74
2022/02/04 03:13:24;;;;;;;2.10;1.33;;;;;;;2.38;74.43;92574.25;2071510;69;20140;-71
2022/02/04 03:15:58;;;;;;;1.58;1.25;;;;;;;2.24;74.86;92565.41;2071461;69;20156;-73
2022/02/04 03:18:26;;;;;;;2.33;1.20;;;;;;;2.19;75.41;92567.09;2068528;69;20179;-74
2022/02/04 03:20:56;;;;;;;1.42;1.08;;;;;;;2.28;74.92;92566.50;2071464;69;20156;-69
2022/02/04 03:23:26;;;;;;;1.63;1.10;;;;;;;2.35;74.72;92567.06;2071625;69;20144;-70
2022/02/04 03:25:58;;;;;;;2.45;1.20;;;;;;;2.36;74.32;92569.28;2071466;69;20156;-77
2022/02/04 03:28:27;;;;;;;1.38;1.10;;;;;;;2.33;74.82;92556.50;2071588;69;20202;-71
2022/02/04 03:30:55;;;;;;;3.15;1.00;;;;;;;2.32;74.43;92563.38;2069060;69;20159;-75
2022/02/04 03:33:24;;;;;;;1.27;1.08;;;;;;;2.25;75.23;92567.66;2071411;69;20160;-71
2022/02/04 03:35:50;;;;;;;2.00;1.00;;;;;;;2.10;75.65;92573.22;2071423;69;20152;-72
2022/02/04 03:38:16;;;;;;;1.42;0.90;;;;;;;2.07;75.48;92566.03;2071544;69;20650;-70
2022/02/04 03:40:42;;;;;;;3.40;1.10;;;;;;;2.06;76.66;92572.88;2071648;69;20206;-69
2022/02/04 03:43:07;;;;;;;0.90;0.80;;;;;;;2.20;75.68;92568.59;2072206;69;20163;-70
2022/02/04 03:45:33;;;;;;;1.73;1.10;;;;;;;2.18;75.18;92573.22;2071699;69;20148;-72
2022/02/04 03:48:00;;;;;;;1.40;1.10;;;;;;;2.16;74.95;92584.16;2071851;69;20227;-72
2022/02/04 03:50:26;;;;;;;3.33;1.48;;;;;;;2.04;74.91;92578.25;2071691;69;20155;-77
2022/02/04 03:52:52;;;;;;;3.13;1.73;;;;;;;1.91;74.75;92589.56;2071944;69;20152;-71
2022/02/04 03:55:18;;;;;;;2.90;1.80;;;;;;;1.94;74.58;92589.19;2071601;69;20144;-74
2022/02/04 03:57:43;;;;;;;3.30;1.83;;;;;;;1.92;74.46;92591.03;2072625;69;20152;-70
2022/02/04 04:00:12;;;;;;;3.67;1.92;;;;;;;1.97;73.77;92587.31;2072588;69;20171;-70
2022/02/04 04:02:45;;;;;;;4.70;2.60;;;;;;;1.88;73.98;92599.00;2071912;69;20183;-69
2022/02/04 04:05:12;;;;;;;5.55;2.83;;;;;;;1.71;74.57;92594.78;2071807;69;20596;-71
2022/02/04 04:07:43;;;;;;;4.53;2.30;;;;;;;1.80;74.46;92589.97;2071867;69;20160;-70
2022/02/04 04:10:13;;;;;;;5.88;2.47;;;;;;;1.77;74.41;92592.53;2071815;69;20171;-73
2022/02/04 04:12:39;;;;;;;3.65;2.05;;;;;;;1.73;73.98;92594.22;2071862;69;20186;-70
2022/02/04 04:15:08;;;;;;;4.28;2.60;;;;;;;1.67;73.36;92593.66;2071862;69;20160;-70
2022/02/04 04:17:40;;;;;;;4.10;2.20;;;;;;;1.48;74.74;92592.00;2068551;69;20152;-70
2022/02/04 04:20:27;;;;;;;4.93;2.30;;;;;;;1.43;74.66;92592.19;2071537;69;20155;-70
2022/02/04 04:22:54;;;;;;;4.95;2.22;;;;;;;1.63;74.07;92591.25;2071509;69;20152;-70
2022/02/04 04:25:21;;;;;;;2.08;1.55;;;;;;;1.67;74.21;92588.84;2071709;69;20188;-71
2022/02/04 04:27:48;;;;;;;1.00;0.90;;;;;;;1.65;75.41;92594.22;2071786;69;20213;-70
2022/02/04 04:30:17;;;;;;;1.95;1.00;;;;;;;1.72;75.47;92595.50;2071683;69;20231;-71
2022/02/04 04:32:44;;;;;;;2.22;1.45;;;;;;;1.63;75.37;92596.06;2071754;69;20611;-71
2022/02/04 04:35:12;;;;;;;3.30;2.10;;;;;;;1.63;74.94;92602.34;2071717;69;20235;-72
2022/02/04 05:29:10;;;;;;;1.92;1.42;;;;;;;1.73;74.45;92622.69;2072002;69;20264;-71
2022/02/04 05:31:36;;;;;;;2.10;1.60;;;;;;;1.69;74.69;92627.13;2071962;69;20239;-72
2022/02/04 05:34:02;;;;;;;2.72;1.92;;;;;;;1.66;73.83;92629.00;2071891;69;20172;-71
2022/02/04 05:36:27;;;;;;;2.83;1.83;;;;;;;1.69;73.74;92635.47;2071729;69;20156;-71
2022/02/04 05:38:54;;;;;;;2.28;1.58;;;;;;;1.63;74.02;92629.38;2071863;69;20614;-74
2022/02/04 05:41:33;;;;;;;1.23;0.90;;;;;;;1.69;74.08;92618.81;2072029;69;20152;-77
2022/02/04 05:44:04;;;;;;;1.55;1.10;;;;;;;1.71;74.00;92628.06;2072062;69;20183;-70
2022/02/04 05:46:35;;;;;;;4.72;2.17;;;;;;;1.68;73.46;92623.63;2073218;69;20158;-70
2022/02/04 05:49:02;;;;;;;5.80;3.00;;;;;;;1.31;74.55;92624.34;2072087;69;20172;-72
2022/02/04 05:51:40;;;;;;;5.15;3.05;;;;;;;1.48;74.21;92627.34;2068504;69;20172;-74
2022/02/04 06:02:00;;;;;;;2.55;1.88;;;;;;;1.77;73.12;92636.94;2071723;69;20136;-71
2022/02/04 06:22:50;;;;;;;3.90;2.30;;;;;;;1.69;71.41;92627.13;2071706;69;20144;-71
2022/02/04 06:25:19;;;;;;;2.30;1.52;;;;;;;1.77;71.33;92631.41;2071725;69;20221;-75
2022/02/04 06:27:45;;;;;;;1.40;1.27;;;;;;;1.84;71.06;92624.38;2071713;69;20148;-70
2022/02/04 06:30:13;;;;;;;1.98;1.35;;;;;;;1.73;71.92;92621.97;2071784;69;20171;-71
2022/02/04 06:32:38;;;;;;;2.92;1.50;;;;;;;1.74;71.31;92626.22;2071781;69;20175;-71
2022/02/04 06:35:07;;;;;;;3.90;2.10;;;;;;;1.75;71.18;92633.25;2071807;69;20585;-74
2022/02/04 06:37:33;;;;;;;4.75;2.30;;;;;;;1.70;71.30;92636.97;2071698;69;20140;-70
2022/02/04 06:39:59;;;;;;;5.75;3.70;;;;;;;1.78;70.64;92637.69;2068343;69;20524;-72
2022/02/04 06:42:27;;;;;;;4.15;2.63;;;;;;;1.74;70.92;92642.88;2071660;69;20592;-71
2022/02/04 06:44:53;;;;;;;3.22;2.15;;;;;;;1.63;70.55;92640.47;2071675;69;20144;-69
2022/02/04 06:47:19;;;;;;;2.70;1.70;;;;;;;1.75;70.04;92636.78;2071679;69;20631;-70
2022/02/04 06:49:47;;;;;;;3.88;2.20;;;;;;;1.86;70.00;92634.91;2071570;69;20160;-71
2022/02/04 06:52:13;;;;;;;4.10;2.53;;;;;;;1.81;70.26;92633.81;2071669;69;20136;-70
2022/02/04 06:54:40;;;;;;;3.28;2.17;;;;;;;1.89;69.93;92629.00;2071691;69;20190;-70
2022/02/04 06:57:06;;;;;;;4.72;1.88;;;;;;;1.87;70.38;92625.28;2071648;69;20191;-70
2022/02/04 06:59:33;;;;;;;2.30;1.42;;;;;;;1.97;69.94;92621.41;2071714;69;20144;-70
2022/02/04 07:01:58;;;;;;;2.13;1.60;;;;;;;1.95;70.38;92626.75;2071633;69;20202;-70
2022/02/04 07:04:28;;;;;;;4.25;2.53;;;;;;;1.38;72.83;92624.38;2068222;69;20612;-78
2022/02/04 07:06:56;;;;;;;6.15;3.10;;;;;;;1.56;72.65;92621.78;2071697;69;20231;-77
2022/02/04 07:19:46;;;;;;;1.95;1.60;;;;;;;1.90;69.43;92630.47;2071598;69;20160;-71
2022/02/04 07:22:20;;;;;;;4.55;2.63;;;;;;;1.77;69.67;92633.44;2071781;69;20148;-70
2022/02/04 07:24:47;;;;;;;8.43;4.13;;;;;;;1.80;70.14;92631.59;2071612;69;20163;-71
2022/02/04 07:27:13;;;;;;;8.60;4.00;;;;;;;1.89;69.67;92629.00;2071584;69;20143;-75
2022/02/04 07:29:41;;;;;;;11.68;4.50;;;;;;;1.93;69.58;92626.59;2071678;69;20163;-70
2022/02/04 07:32:12;;;;;;;7.35;3.63;;;;;;;1.82;69.75;92634.53;2071575;69;20144;-70
2022/02/04 07:42:41;;;;;;;13.75;6.10;;;;;;;1.18;72.54;92617.66;2071570;69;20607;-68
2022/02/04 07:45:07;;;;;;;12.68;5.15;;;;;;;1.55;71.63;92620.28;2071715;69;20144;-69
2022/02/04 07:47:32;;;;;;;7.75;5.45;;;;;;;1.65;71.19;92615.66;2071599;69;20298;-68
2022/02/04 07:49:58;;;;;;;8.10;5.40;;;;;;;1.70;70.74;92617.53;2071542;69;20175;-68
2022/02/04 07:52:24;;;;;;;10.15;5.70;;;;;;;1.72;70.55;92612.16;2070812;69;20627;-70
2022/02/04 07:54:50;;;;;;;11.15;5.90;;;;;;;1.63;70.88;92612.72;2068366;69;20140;-70
2022/02/04 07:57:15;;;;;;;7.25;4.50;;;;;;;1.47;71.78;92604.41;2068465;69;20163;-69
2022/02/04 07:59:42;;;;;;;10.52;5.60;;;;;;;1.50;71.29;92606.03;2068178;69;20144;-75
2022/02/04 08:02:08;;;;;;;8.85;5.65;;;;;;;1.62;70.77;92605.69;2071507;69;20151;-76
2022/02/04 08:04:37;;;;;;;10.45;5.68;;;;;;;1.64;71.05;92601.06;2071515;69;20148;-71
2022/02/04 08:07:08;;;;;;;9.13;5.43;;;;;;;1.64;71.15;92606.59;2071431;69;20589;-69
2022/02/04 08:12:18;;;;;;;7.93;5.07;;;;;;;1.73;70.71;92622.69;2071628;69;20588;-73
2022/02/04 08:17:57;;;;;;;;;;;;;;;1.60;71.28;92617.34;2071740;69;20140;-71
2022/02/04 08:23:51;;;;;;;19.70;7.90;;;;;;;1.48;71.59;92608.66;2071454;69;20190;-74
2022/02/04 08:26:19;;;;;;;22.65;10.10;;;;;;;1.41;72.37;92612.16;2071208;69;20136;-72
2022/02/04 08:29:04;;;;;;;15.50;7.82;;;;;;;1.59;71.36;92609.56;2068659;69;20153;-70
2022/02/04 08:32:04;;;;;;;15.40;8.00;;;;;;;1.58;71.86;92599.78;2072048;69;20676;-70
2022/02/04 08:55:59;;;;;;;17.27;10.50;;;;;;;3.81;69.83;92603.88;2068898;69;20182;-76
2022/02/04 09:01:18;;;;;;;17.90;9.32;;;;;;;4.07;68.35;92602.50;2069371;69;20225;-75
2022/02/04 09:06:15;;;;;;;15.45;7.50;;;;;;;3.61;67.58;92599.38;2071842;69;20128;-78
2022/02/04 09:08:44;;;;;;;20.88;9.20;;;;;;;3.62;67.05;92607.19;2072034;69;20155;-67
2022/02/04 09:11:15;;;;;;;21.65;10.25;;;;;;;4.04;66.66;92606.47;2071938;69;20175;-75
2022/02/04 09:19:17;;;;;;;17.92;9.65;;;;;;;4.36;65.62;92599.28;2071849;69;20179;-71
2022/02/04 09:24:24;;;;;;;28.13;14.07;;;;;;;4.81;65.51;92601.56;2069961;69;20136;-68
2022/02/04 09:26:53;;;;;;;24.40;11.25;;;;;;;4.69;64.97;92605.44;2073364;69;20136;-74
2022/02/04 09:29:19;;;;;;;20.48;11.25;;;;;;;4.81;64.86;92606.38;2072109;69;20198;-74
2022/02/04 09:31:44;;;;;;;18.23;10.65;;;;;;;4.99;64.48;92612.69;2072037;69;20473;-74
2022/02/04 09:34:10;;;;;;;18.52;9.75;;;;;;;5.18;64.42;92615.63;2071822;69;20139;-75
2022/02/04 09:36:37;;;;;;;18.70;10.88;;;;;;;5.23;64.08;92609.03;2071924;69;20133;-73
2022/02/04 09:39:09;;;;;;;19.10;10.75;;;;;;;5.30;63.92;92602.59;2071952;69;20618;-71
2022/02/04 09:41:36;;;;;;;20.42;11.38;;;;;;;5.37;63.32;92600.31;2071900;69;20136;-69
2022/02/04 09:44:02;;;;;;;22.65;11.82;;;;;;;5.59;62.58;92591.59;2071918;69;20141;-69
2022/02/04 09:46:34;;;;;;;19.85;11.55;;;;;;;5.71;63.37;92591.78;2071927;69;20152;-71
2022/02/04 09:49:00;;;;;;;21.60;12.55;;;;;;;5.84;63.14;92604.63;2072013;69;20179;-72
2022/02/04 09:51:55;;;;;;;24.45;12.30;;;;;;;5.83;62.34;92601.09;2071773;69;20167;-70
2022/02/04 10:11:30;;;;;;;32.97;19.02;;;;;;;6.24;62.46;92595.06;2071893;69;20279;-70
2022/02/04 10:13:55;;;;;;;20.70;11.60;;;;;;;6.84;60.35;92595.25;2071846;69;20231;-73
2022/02/04 10:16:40;;;;;;;15.38;9.25;;;;;;;7.52;58.83;92595.16;2071967;69;20140;-71
2022/02/04 10:22:01;;;;;;;16.38;9.75;;;;;;;8.72;58.52;92597.69;2067662;69;20564;-72
2022/02/04 10:24:29;;;;;;;19.52;10.05;;;;;;;8.57;56.37;92595.28;2071820;69;20588;-71
2022/02/04 10:27:17;;;;;;;12.15;7.90;;;;;;;8.80;55.23;92595.41;2072026;69;20149;-76
2022/02/04 10:30:08;;;;;;;11.80;6.15;;;;;;;8.80;54.43;92597.50;2071879;69;20175;-73
2022/02/04 10:32:41;;;;;;;10.25;5.85;;;;;;;8.78;53.55;92591.72;2071970;69;20222;-77
2022/02/04 10:35:13;;;;;;;8.45;5.53;;;;;;;8.61;54.70;92598.34;2071739;69;20151;-72
2022/02/04 10:37:55;;;;;;;9.68;5.68;;;;;;;8.46;53.37;92598.75;2071831;69;20175;-72
2022/02/04 10:46:07;;;;;;;16.35;9.85;;;;;;;8.34;54.94;92579.75;2071836;69;20293;-76
2022/02/04 10:49:05;;;;;;;9.20;4.60;;;;;;;8.26;54.03;92573.59;2071642;69;20141;-74
2022/02/04 10:59:12;;;;;;;8.15;4.35;;;;;;;10.18;52.49;92568.88;2071704;69;20528;-71
2022/02/04 11:05:19;;;;;;;7.20;3.90;;;;;;;9.82;51.54;92579.38;2071705;69;20224;-72
2022/02/04 11:10:17;;;;;;;7.45;4.85;;;;;;;10.10;50.55;92571.91;2071709;69;20216;-73
2022/02/04 11:43:47;;;;;;;5.50;4.65;;;;;;;19.50;31.27;92532.03;2071647;69;20677;-70
2022/02/04 11:54:39;;;;;;;8.15;4.05;;;;;;;22.33;30.41;92525.53;2065581;69;20233;-75
2022/02/04 11:57:07;;;;;;;5.15;3.67;;;;;;;20.41;30.47;92520.59;2071542;69;20159;-74
2022/02/04 11:59:48;;;;;;;4.43;3.55;;;;;;;19.96;30.47;92526.03;2071598;69;20527;-73
2022/02/04 12:02:26;;;;;;;4.20;3.28;;;;;;;21.73;30.69;92519.56;2068958;69;20652;-71
2022/02/04 12:05:07;;;;;;;4.65;3.70;;;;;;;23.94;27.54;92518.06;2071528;69;20144;-70
2022/02/04 12:07:54;;;;;;;4.70;3.50;;;;;;;22.51;27.60;92507.16;2071992;69;20549;-71
2022/02/04 12:10:22;;;;;;;3.95;3.03;;;;;;;23.99;26.05;92507.31;2072067;69;20148;-72
2022/02/04 12:13:00;;;;;;;3.80;3.10;;;;;;;24.17;25.29;92506.72;2071878;69;20156;-71
2022/02/04 12:15:31;;;;;;;6.55;3.10;;;;;;;22.99;26.70;92504.16;2070387;69;20149;-80
2022/02/04 12:18:05;;;;;;;3.72;3.15;;;;;;;23.47;26.11;92499.66;2068688;69;20175;-72
2022/02/04 12:20:56;;;;;;;4.53;3.40;;;;;;;25.07;24.55;92491.44;2068579;69;20644;-72
2022/02/04 12:23:28;;;;;;;5.63;3.05;;;;;;;25.07;25.27;92485.66;2069494;69;20174;-76
2022/02/04 12:26:08;;;;;;;3.42;2.95;;;;;;;22.81;24.47;92469.50;2068786;69;20236;-81
2022/02/04 12:28:38;;;;;;;4.70;3.70;;;;;;;20.33;28.34;92472.53;2068694;69;20174;-77
2022/02/04 12:31:11;;;;;;;4.82;3.90;;;;;;;18.61;29.95;92470.50;2068847;69;20228;-78
2022/02/04 12:33:48;;;;;;;5.65;3.70;;;;;;;17.43;31.89;92464.16;2068922;69;20279;-76
2022/02/04 12:36:20;;;;;;;5.90;4.13;;;;;;;17.22;32.60;92457.09;2070642;69;20143;-71
2022/02/04 12:38:47;;;;;;;4.68;4.10;;;;;;;16.48;33.28;92436.81;2072761;69;20151;-71
2022/02/04 12:41:24;;;;;;;11.18;8.93;;;;;;;14.91;37.01;92447.94;2069265;69;20147;-69
2022/02/04 12:43:53;;;;;;;6.32;4.53;;;;;;;12.75;40.48;92450.31;2070139;69;20168;-68
2022/02/04 12:46:19;;;;;;;5.05;3.88;;;;;;;13.28;40.44;92440.81;2067708;69;20560;-69
2022/02/04 12:49:05;;;;;;;7.43;4.22;;;;;;;12.21;41.92;92446.22;2068004;69;20151;-69
2022/02/04 12:51:32;;;;;;;65.55;29.40;;;;;;;12.32;42.11;92436.16;2067691;69;20164;-69
2022/02/04 12:53:58;;;;;;;36.30;16.65;;;;;;;12.60;42.51;92428.38;2068251;69;20239;-69
2022/02/04 12:57:04;;;;;;;27.63;13.15;;;;;;;12.25;42.10;92420.31;2070672;69;20160;-68
2022/02/04 13:02:19;;;;;;;14.93;7.80;;;;;;;11.16;44.60;92406.22;2068004;69;20103;-68
2022/02/04 13:10:27;;;;;;;10.60;6.97;;;;;;;10.07;47.03;92393.13;2070171;69;20177;-70
2022/02/04 13:13:01;;;;;;;11.93;6.72;;;;;;;10.19;46.78;92390.28;2068222;69;20236;-69
2022/02/04 13:15:33;;;;;;;7.22;4.20;;;;;;;9.44;48.33;92386.66;2068614;69;20310;-77
2022/02/04 13:17:59;;;;;;;31.33;19.42;;;;;;;9.01;49.07;92383.34;2068575;69;20152;-69
2022/02/04 13:20:27;;;;;;;12.43;8.18;;;;;;;9.05;49.09;92381.50;2068466;69;20161;-76
2022/02/04 13:23:01;;;;;;;9.73;6.38;;;;;;;8.85;49.77;92371.84;2070563;69;20156;-76
2022/02/04 13:25:35;;;;;;;10.52;6.72;;;;;;;9.18;49.14;92374.56;2069099;69;20152;-70
2022/02/04 13:28:05;;;;;;;12.63;7.80;;;;;;;7.90;52.58;92378.47;2065432;69;20141;-76
2022/02/04 13:30:41;;;;;;;13.63;8.10;;;;;;;8.27;52.51;92378.75;2068404;69;20493;-69
2022/02/04 13:33:16;;;;;;;19.02;9.40;;;;;;;8.22;51.96;92373.50;2071707;69;20149;-70
2022/02/04 13:35:43;;;;;;;24.70;13.10;;;;;;;8.13;52.52;92370.16;2071773;69;20156;-69
2022/02/04 13:38:33;;;;;;;15.30;10.23;;;;;;;7.75;53.32;92374.00;2071873;69;20177;-80
2022/02/04 13:41:09;;;;;;;14.48;9.80;;;;;;;8.14;52.52;92371.63;2071758;69;20171;-75
2022/02/04 13:43:44;;;;;;;19.95;13.32;;;;;;;8.36;52.68;92380.75;2068400;69;20132;-70
2022/02/04 13:46:36;;;;;;;26.25;17.10;;;;;;;8.57;51.92;92384.84;2068583;69;20145;-69
2022/02/04 13:49:23;;;;;;;29.15;19.35;;;;;;;8.64;52.52;92384.59;2068303;69;20248;-74
2022/02/04 14:02:51;;;;;;;32.35;20.77;;;;;;;8.45;52.76;92372.84;2075245;69;20286;-69
2022/02/04 14:05:29;;;;;;;28.15;17.73;;;;;;;8.22;53.37;92374.22;2074442;69;20170;-79
2022/02/04 14:08:07;;;;;;;28.38;14.68;;;;;;;7.55;55.12;92379.00;2065224;69;20162;-73
2022/02/04 14:10:42;;;;;;;26.60;17.15;;;;;;;7.92;53.93;92370.19;2071771;69;20148;-78
2022/02/04 14:13:10;;;;;;;30.10;19.60;;;;;;;7.34;55.83;92364.97;2071778;69;20166;-74
2022/02/04 14:15:38;;;;;;;29.23;17.35;;;;;;;7.37;55.81;92370.09;2071803;69;20144;-68
2022/02/04 14:18:08;;;;;;;37.97;18.02;;;;;;;7.42;55.71;92359.91;2068496;69;20183;-74
2022/02/04 14:20:36;;;;;;;35.28;18.83;;;;;;;7.46;56.26;92351.03;2071860;69;20198;-77
2022/02/04 14:23:06;;;;;;;24.42;12.52;;;;;;;6.92;57.23;92363.56;2068340;69;20684;-75
2022/02/04 14:25:42;;;;;;;19.05;11.40;;;;;;;7.07;57.92;92359.69;2071540;69;20604;-70
2022/02/04 14:28:10;;;;;;;28.50;13.88;;;;;;;6.61;57.19;92364.25;2070335;69;20143;-72
2022/02/04 14:30:37;;;;;;;24.15;14.07;;;;;;;6.77;56.75;92353.44;2071766;69;20441;-70
2022/02/04 14:33:28;;;;;;;27.88;15.85;;;;;;;6.61;56.87;92350.28;2068464;69;20513;-73
2022/02/04 14:36:17;;;;;;;26.20;17.50;;;;;;;6.53;57.41;92344.13;2067803;69;20152;-70
2022/02/04 14:50:07;;;;;;;34.20;18.50;;;;;;;6.10;58.58;92343.94;2068338;69;20227;-69
2022/02/04 15:00:52;;;;;;;42.50;24.45;;;;;;;5.76;60.00;92333.03;2068397;69;20164;-73
2022/02/04 15:03:24;;;;;;;46.45;21.92;;;;;;;5.83;59.98;92332.91;2067752;69;20168;-76
2022/02/04 15:06:02;;;;;;;;;;;;;;;5.80;60.41;92328.47;2068362;69;20226;-72
2022/02/04 15:08:30;;;;;;;43.72;23.27;;;;;;;5.06;63.29;92333.59;2068301;69;20151;-71
2022/02/04 15:10:59;;;;;;;39.22;22.23;;;;;;;5.40;61.29;92333.91;2068311;69;20619;-72
2022/02/04 15:13:25;;;;;;;34.17;20.25;;;;;;;5.05;62.35;92317.44;2068368;69;20129;-73
2022/02/04 15:15:51;;;;;;;38.28;21.88;;;;;;;5.42;59.95;92315.28;2068320;69;20148;-74
2022/02/04 15:18:16;;;;;;;40.55;21.83;;;;;;;5.29;61.21;92315.69;2068304;69;20132;-72
2022/02/04 15:20:43;;;;;;;38.72;21.35;;;;;;;5.20;61.17;92311.56;2068296;69;20244;-71
2022/02/04 15:23:12;;;;;;;33.80;19.88;;;;;;;5.33;60.47;92308.34;2068421;69;20137;-71
2022/02/04 15:25:37;;;;;;;33.80;19.27;;;;;;;5.09;61.23;92307.31;2068316;69;20149;-73
2022/02/04 15:30:44;;;;;;;31.02;17.83;;;;;;;5.04;62.06;92313.91;2068366;69;20172;-70
2022/02/04 15:33:10;;;;;;;31.45;16.70;;;;;;;4.89;62.29;92316.94;2068260;69;20624;-70
2022/02/04 15:35:37;;;;;;;32.78;18.13;;;;;;;4.99;62.16;92322.53;2067982;69;20235;-71
2022/02/04 15:38:03;;;;;;;29.55;17.20;;;;;;;4.98;61.62;92326.66;2068262;69;20152;-70
2022/02/04 15:40:28;;;;;;;32.17;17.88;;;;;;;4.92;61.50;92326.94;2068411;69;20158;-70
2022/02/04 15:43:00;;;;;;;32.47;17.55;;;;;;;4.61;63.08;92321.13;2068209;69;20242;-71
2022/02/04 16:05:31;;;;;;;66.40;32.30;;;;;;;4.50;62.30;92341.19;2068053;69;20540;-70
2022/02/04 16:07:57;;;;;;;67.82;33.22;;;;;;;4.32;63.32;92324.53;2068048;69;20718;-71
2022/02/04 16:12:58;;;;;;;42.78;23.15;;;;;;;3.95;65.38;92334.88;2068134;69;20171;-68
2022/02/04 16:18:01;;;;;;;38.10;20.67;;;;;;;4.10;63.40;92338.78;2068207;69;20151;-68
2022/02/04 16:23:13;;;;;;;41.35;20.92;;;;;;;3.98;64.13;92353.22;2068061;69;20141;-70
2022/02/04 16:26:11;;;;;;;42.92;21.65;;;;;;;3.66;64.05;92353.44;2068119;69;20505;-70
2022/02/04 16:31:08;;;;;;;37.35;21.05;;;;;;;3.70;64.47;92356.53;2068050;69;20148;-69
2022/02/04 16:33:34;;;;;;;43.38;22.55;;;;;;;3.72;64.14;92349.09;2068049;69;20625;-70
2022/02/04 16:36:08;;;;;;;30.85;18.02;;;;;;;3.67;63.69;92344.50;2067970;69;20234;-70
2022/02/04 16:38:34;;;;;;;38.60;21.23;;;;;;;3.72;64.11;92345.56;2068048;69;20149;-70
2022/02/04 16:41:08;;;;;;;57.20;30.48;;;;;;;3.65;64.77;92349.19;2068065;69;20267;-72
2022/02/04 16:43:35;;;;;;;50.50;26.17;;;;;;;3.61;65.29;92354.41;2069214;69;20173;-71
2022/02/04 16:46:06;;;;;;;54.30;28.88;;;;;;;3.67;64.01;92354.91;2068255;69;20155;-70
2022/02/04 16:48:37;;;;;;;40.33;21.88;;;;;;;3.50;64.61;92347.31;2068692;69;20601;-77
2022/02/04 16:51:06;;;;;;;112.57;54.80;;;;;;;3.44;64.95;92352.41;2068457;69;20547;-72
2022/02/04 16:53:35;;;;;;;85.65;41.17;;;;;;;3.51;64.61;92363.44;2068584;69;20150;-77
2022/02/04 16:56:01;;;;;;;103.78;48.95;;;;;;;3.25;66.88;92364.81;2068559;69;20160;-76
2022/02/04 16:58:26;;;;;;;83.95;41.17;;;;;;;3.43;65.04;92359.97;2068685;69;20140;-73
2022/02/04 17:00:52;;;;;;;86.20;43.85;;;;;;;3.20;66.50;92365.03;2068648;69;20537;-71
2022/02/04 17:03:18;;;;;;;75.97;36.92;;;;;;;3.32;65.11;92366.03;2068599;69;20153;-74
2022/02/04 17:08:14;;;;;;;59.15;29.55;;;;;;;2.98;66.79;92377.88;2068469;69;20182;-70
2022/02/04 17:10:44;;;;;;;49.25;21.50;;;;;;;2.83;66.38;92380.78;2068635;69;20192;-70
2022/02/04 17:13:11;;;;;;;39.97;20.52;;;;;;;2.80;66.53;92382.66;2068537;69;20670;-68
2022/02/04 17:15:40;;;;;;;40.33;21.25;;;;;;;3.01;66.03;92382.28;2066343;69;20156;-72
2022/02/04 17:18:07;;;;;;;39.00;20.08;;;;;;;3.01;64.76;92376.72;2066170;69;20292;-70
2022/02/04 17:20:33;;;;;;;40.58;21.20;;;;;;;2.98;66.36;92380.66;2068268;69;20148;-72
2022/02/04 17:23:01;;;;;;;48.00;23.45;;;;;;;2.99;65.10;92380.06;2065114;69;20144;-76
2022/02/04 17:25:29;;;;;;;50.58;26.75;;;;;;;2.89;65.33;92370.91;2068406;69;20244;-71
2022/02/04 17:27:56;;;;;;;49.97;25.77;;;;;;;2.82;66.00;92371.69;2065002;69;20164;-76
2022/02/04 17:30:24;;;;;;;43.47;21.55;;;;;;;2.74;66.00;92371.75;2068390;69;20596;-74
2022/02/04 17:32:50;;;;;;;43.25;24.08;;;;;;;2.82;65.59;92362.63;2068532;69;20141;-75
2022/02/04 17:35:17;;;;;;;20.58;11.55;;;;;;;2.44;68.65;92378.28;2065027;69;20141;-69
2022/02/04 17:37:44;;;;;;;26.30;14.27;;;;;;;2.55;67.59;92379.88;2065351;69;20247;-75
2022/02/04 17:40:13;;;;;;;33.60;17.63;;;;;;;2.60;66.53;92378.16;2069397;69;20214;-71
2022/02/04 17:42:40;;;;;;;36.85;18.85;;;;;;;2.57;66.71;92382.81;2068577;69;20151;-69
2022/02/04 17:45:10;;;;;;;58.75;26.27;;;;;;;2.34;67.84;92393.34;2068550;69;20578;-69
2022/02/04 17:47:37;;;;;;;39.70;19.20;;;;;;;2.53;66.08;92394.34;2068510;69;20237;-69
2022/02/04 17:50:11;;;;;;;33.13;17.77;;;;;;;2.35;67.31;92392.78;2068386;69;20547;-76
2022/02/04 17:52:44;;;;;;;45.70;20.88;;;;;;;2.52;66.85;92397.66;2068874;69;20228;-71
2022/02/04 17:55:27;;;;;;;31.42;16.95;;;;;;;2.46;65.65;92399.94;2069213;69;20696;-70
2022/02/04 17:57:55;;;;;;;;;;;;;;;2.54;65.30;92395.81;2069001;69;20597;-68
2022/02/04 18:05:56;;;;;;;44.83;21.73;;;;;;;2.47;65.98;92388.25;2068501;69;20206;-69
2022/02/04 18:08:23;;;;;;;48.17;23.40;;;;;;;2.45;65.66;92384.56;2065969;69;20156;-70
2022/02/04 18:10:48;;;;;;;46.30;22.90;;;;;;;2.42;66.07;92386.44;2068762;69;20591;-69
2022/02/04 18:13:16;;;;;;;25.85;14.07;;;;;;;2.47;65.64;92379.19;2068553;69;20204;-71
2022/02/04 18:15:43;;;;;;;193.75;111.90;;;;;;;2.21;69.78;92395.09;2068361;69;20145;-74
2022/02/04 18:18:09;;;;;;;33.65;18.42;;;;;;;2.00;68.80;92402.97;2068369;69;20567;-73
2022/02/04 18:20:36;;;;;;;53.00;27.45;;;;;;;2.41;66.66;92382.19;2068291;69;20140;-70
2022/02/04 18:23:02;;;;;;;37.30;20.38;;;;;;;2.36;66.82;92396.31;2068368;69;20697;-71